Terminal Aerodrome Forecast
Issued by NWS

Home | Current Version | Previous Version | Text Only | Print | Product List | Glossary On
Versions: 1 2 3 4 5 6 7 8 9 10 11 12
000
FTUS45 KABQ 211720
TAFGUP
TAF
KGUP 211720Z 2118/2218 23015G25KT P6SM SKC
     FM211830 23025G33KT P6SM SKC
     FM220200 22015G23KT P6SM FEW080
     FM220800 21010KT P6SM FEW070
     FM221500 21015G25KT P6SM SCT060=

USA.gov is the U.S. government's official web portal to all federal, state and local government web resources and services.